createdAt,value
2023-07-22T00:01:25.028Z,84.60
2023-07-22T00:03:51.448Z,84.75
2023-07-22T00:06:17.904Z,83.87
2023-07-22T00:08:44.323Z,84.90
2023-07-22T00:11:10.692Z,84.14
2023-07-22T00:13:37.109Z,84.98
2023-07-22T00:16:05.351Z,84.51
2023-07-22T00:18:32.176Z,83.98
2023-07-22T00:20:58.572Z,82.87
2023-07-22T00:23:25.443Z,83.90
2023-07-22T00:25:51.963Z,85.44
2023-07-22T00:28:19.581Z,86.64
2023-07-22T00:30:46.023Z,84.95
2023-07-22T00:33:13.495Z,86.11
2023-07-22T00:35:39.819Z,86.25
2023-07-22T00:38:06.655Z,86.76
2023-07-22T00:40:33.223Z,85.64
2023-07-22T00:43:00.636Z,85.83
2023-07-22T00:45:27.050Z,85.14
2023-07-22T00:47:54.016Z,86.58
2023-07-22T00:50:20.429Z,87.07
2023-07-22T00:52:46.850Z,86.71
2023-07-22T00:55:13.351Z,86.59
2023-07-22T00:57:39.760Z,86.41
2023-07-22T01:00:07.150Z,87.67
2023-07-22T01:02:35.847Z,87.37
2023-07-22T01:05:02.520Z,85.85
2023-07-22T01:07:29.146Z,86.57
2023-07-22T01:10:01.383Z,86.17
2023-07-22T01:12:27.793Z,87.41
2023-07-22T01:14:54.207Z,87.07
2023-07-22T01:17:20.708Z,86.97
2023-07-22T01:19:48.802Z,85.50
2023-07-22T01:22:16.051Z,84.65
2023-07-22T01:24:42.808Z,87.57
2023-07-22T01:27:11.075Z,87.10
2023-07-22T01:29:37.712Z,89.11
2023-07-22T01:32:04.524Z,90.54
2023-07-22T01:34:32.656Z,88.27
2023-07-22T01:36:59.303Z,87.22
2023-07-22T01:39:25.640Z,87.26
2023-07-22T01:41:52.027Z,86.81
2023-07-22T01:44:18.367Z,84.93
2023-07-22T01:46:44.739Z,84.40
2023-07-22T01:49:13.459Z,84.73
2023-07-22T01:51:41.536Z,84.52
2023-07-22T01:54:08.503Z,84.63
2023-07-22T01:56:34.856Z,84.83
2023-07-22T01:59:01.229Z,84.78
2023-07-22T02:01:29.215Z,84.07
2023-07-22T02:03:56.555Z,84.03
2023-07-22T02:06:23.352Z,85.03
2023-07-22T02:08:50.325Z,83.44
2023-07-22T02:11:18.019Z,84.22
2023-07-22T02:13:44.356Z,85.47
2023-07-22T02:16:12.777Z,85.80
2023-07-22T02:18:39.313Z,84.87
2023-07-22T02:21:05.724Z,86.01
2023-07-22T02:23:32.205Z,85.98
2023-07-22T02:25:58.668Z,85.17
2023-07-22T02:28:25.785Z,85.34
2023-07-22T02:30:53.443Z,84.41
2023-07-22T02:33:20.652Z,85.62
2023-07-22T02:35:48.244Z,86.09
2023-07-22T02:38:15.398Z,86.13
2023-07-22T02:40:42.055Z,85.13
2023-07-22T02:43:08.649Z,84.69
2023-07-22T02:45:35.395Z,85.77
2023-07-22T02:48:02.139Z,87.17
2023-07-22T02:50:28.722Z,86.69
2023-07-22T02:52:55.120Z,88.78
2023-07-22T02:55:21.484Z,87.23
2023-07-22T02:57:48.640Z,86.52
2023-07-22T03:00:24.380Z,88.89
2023-07-22T03:03:02.555Z,87.04
2023-07-22T03:05:30.063Z,85.32
2023-07-22T03:07:56.873Z,85.47
2023-07-22T03:10:23.598Z,85.38
2023-07-22T03:12:50.155Z,85.08
2023-07-22T03:15:16.804Z,86.45
2023-07-22T03:17:43.244Z,85.74
2023-07-22T03:20:15.136Z,85.40
2023-07-22T03:22:42.681Z,86.62
2023-07-22T03:25:13.109Z,88.08
2023-07-22T03:27:39.866Z,86.93
2023-07-22T03:30:11.687Z,87.59
2023-07-22T03:32:38.193Z,86.57
2023-07-22T03:35:05.041Z,86.89
2023-07-22T03:37:31.401Z,85.70
2023-07-22T03:39:57.794Z,85.18
2023-07-22T03:42:24.192Z,85.45
2023-07-22T03:44:50.559Z,84.26
2023-07-22T03:47:17.011Z,85.20
2023-07-22T03:49:43.433Z,85.57
2023-07-22T03:52:09.847Z,88.04
2023-07-22T03:54:36.202Z,86.06
2023-07-22T03:57:02.591Z,87.11
2023-07-22T03:59:29.770Z,85.63
2023-07-22T04:01:56.179Z,85.76
2023-07-22T04:04:22.599Z,86.16
2023-07-22T04:06:49.059Z,85.58
2023-07-22T04:09:15.432Z,85.41
2023-07-22T04:11:41.760Z,87.14
2023-07-22T04:14:08.124Z,85.06
2023-07-22T04:16:34.515Z,85.69
2023-07-22T04:19:00.865Z,85.69
2023-07-22T04:21:27.256Z,85.29
2023-07-22T04:23:54.620Z,85.27
2023-07-22T04:26:21.404Z,85.99
2023-07-22T04:28:47.803Z,86.93
2023-07-22T04:31:14.171Z,85.92
2023-07-22T04:33:42.557Z,84.75
2023-07-22T04:36:08.960Z,86.91
2023-07-22T04:38:35.342Z,87.62
2023-07-22T04:41:04.767Z,89.94
2023-07-22T04:43:31.374Z,89.44
2023-07-22T04:45:57.739Z,89.64
2023-07-22T04:48:24.521Z,87.32
2023-07-22T04:50:51.246Z,86.62
2023-07-22T04:53:18.677Z,87.89
2023-07-22T04:55:45.044Z,85.64
2023-07-22T04:58:11.944Z,85.67
2023-07-22T05:00:38.931Z,85.76
2023-07-22T05:03:05.876Z,85.26
2023-07-22T05:05:33.001Z,85.22
2023-07-22T05:07:59.384Z,86.08
2023-07-22T05:10:25.779Z,85.68
2023-07-22T05:12:52.151Z,84.29
2023-07-22T05:15:18.618Z,86.08
2023-07-22T05:17:45.071Z,84.92
2023-07-22T05:20:11.879Z,84.15
2023-07-22T05:22:38.847Z,85.10
2023-07-22T05:25:06.681Z,85.62
2023-07-22T05:27:33.449Z,84.87
2023-07-22T05:29:59.961Z,83.20
2023-07-22T05:32:33.495Z,84.69
2023-07-22T05:35:01.088Z,85.37
2023-07-22T05:37:27.498Z,84.90
2023-07-22T05:39:53.893Z,84.65
2023-07-22T05:42:20.281Z,86.26
2023-07-22T05:44:46.631Z,88.30
2023-07-22T05:47:12.991Z,86.68
2023-07-22T05:49:39.351Z,87.49
2023-07-22T05:52:06.269Z,85.29
2023-07-22T05:54:32.766Z,86.25
2023-07-22T05:56:59.182Z,88.65
2023-07-22T05:59:25.532Z,87.23
2023-07-22T06:01:52.013Z,87.05
2023-07-22T06:04:18.593Z,87.52
2023-07-22T06:06:45.098Z,88.67
2023-07-22T06:09:11.850Z,86.37
2023-07-22T06:11:38.212Z,85.42
2023-07-22T06:14:04.600Z,84.63
2023-07-22T06:16:30.970Z,82.69
2023-07-22T06:18:57.377Z,83.33
2023-07-22T06:21:23.749Z,82.87
2023-07-22T06:23:50.075Z,80.82
2023-07-22T06:26:16.444Z,82.96
2023-07-22T06:28:43.393Z,83.38
2023-07-22T06:31:09.774Z,83.61
2023-07-22T06:33:37.105Z,81.20
2023-07-22T06:36:03.708Z,81.46
2023-07-22T06:38:30.100Z,81.87
2023-07-22T06:40:56.432Z,82.08
2023-07-22T06:43:22.928Z,81.91
2023-07-22T06:45:49.319Z,82.75
2023-07-22T06:48:15.729Z,80.32
2023-07-22T06:50:48.543Z,81.44
2023-07-22T06:53:15.928Z,81.01
2023-07-22T06:55:52.455Z,79.45
2023-07-22T06:58:20.424Z,80.38
2023-07-22T07:00:46.907Z,77.32
2023-07-22T07:03:13.398Z,77.50
2023-07-22T07:05:42.463Z,77.61
2023-07-22T07:08:11.353Z,78.53
2023-07-22T07:10:39.270Z,77.82
2023-07-22T07:13:05.701Z,76.07
2023-07-22T07:15:32.064Z,78.93
2023-07-22T07:17:58.476Z,74.67
2023-07-22T07:20:24.877Z,75.11
2023-07-22T07:22:51.857Z,74.03
2023-07-22T07:25:18.345Z,74.97
2023-07-22T07:27:44.710Z,73.72
2023-07-22T07:30:11.576Z,73.71
2023-07-22T07:32:38.019Z,73.72
2023-07-22T07:35:05.212Z,72.03
2023-07-22T07:37:33.339Z,71.35
2023-07-22T07:40:00.780Z,69.76
2023-07-22T07:42:30.234Z,68.77
2023-07-22T07:44:56.696Z,66.22
2023-07-22T07:47:28.983Z,65.92
2023-07-22T07:49:55.435Z,68.30
2023-07-22T07:52:21.797Z,69.03
2023-07-22T07:54:54.690Z,67.28
2023-07-22T07:57:21.185Z,68.34
2023-07-22T07:59:47.555Z,66.72
2023-07-22T08:02:13.983Z,68.03
2023-07-22T08:04:40.389Z,65.56
2023-07-22T08:07:07.463Z,63.95
2023-07-22T08:09:33.810Z,63.94
2023-07-22T08:12:00.161Z,61.40
2023-07-22T08:14:26.538Z,62.05
2023-07-22T08:16:52.878Z,60.44
2023-07-22T08:19:19.254Z,61.43
2023-07-22T08:21:45.597Z,61.16
2023-07-22T08:24:11.989Z,60.50
2023-07-22T08:26:38.440Z,60.89
2023-07-22T08:29:04.812Z,61.76
2023-07-22T08:31:31.220Z,59.95
2023-07-22T08:33:57.991Z,60.96
2023-07-22T08:36:24.392Z,59.78
2023-07-22T08:38:50.786Z,60.83
2023-07-22T08:41:17.367Z,60.79
2023-07-22T08:43:46.323Z,58.21
2023-07-22T08:46:13.605Z,60.86
2023-07-22T08:48:43.497Z,61.98
2023-07-22T08:51:17.559Z,61.97
2023-07-22T08:54:04.765Z,63.11
2023-07-22T08:56:34.407Z,63.83
2023-07-22T08:59:01.514Z,63.58
2023-07-22T09:01:28.377Z,61.03
2023-07-22T09:03:55.553Z,61.29
2023-07-22T09:06:22.054Z,59.25
2023-07-22T09:08:48.626Z,61.21
2023-07-22T09:11:16.338Z,61.64
2023-07-22T09:13:45.787Z,61.56
2023-07-22T09:16:12.435Z,61.00
2023-07-22T09:18:38.809Z,60.88
2023-07-22T09:21:05.160Z,61.12
2023-07-22T09:23:36.427Z,62.45
2023-07-22T09:26:10.083Z,63.76
2023-07-22T09:29:08.954Z,65.41
2023-07-22T09:31:50.048Z,64.31
2023-07-22T09:34:16.405Z,61.15
2023-07-22T09:36:59.012Z,64.64
2023-07-22T09:39:25.596Z,67.93
2023-07-22T09:41:53.790Z,69.53
2023-07-22T09:44:20.247Z,65.05
2023-07-22T09:46:50.618Z,61.65
2023-07-22T09:49:19.068Z,59.12
2023-07-22T09:52:00.861Z,57.76
2023-07-22T09:54:32.148Z,58.51
2023-07-22T09:56:58.878Z,57.51
2023-07-22T09:59:25.375Z,56.84
2023-07-22T10:01:52.774Z,57.12
2023-07-22T10:04:22.780Z,55.81
2023-07-22T10:06:49.821Z,54.35
2023-07-22T10:09:16.411Z,53.95
2023-07-22T10:11:42.952Z,52.65
2023-07-22T10:14:09.365Z,52.14
2023-07-22T10:16:37.033Z,52.69
2023-07-22T10:19:04.018Z,52.00
2023-07-22T10:21:31.645Z,50.72
2023-07-22T10:23:58.231Z,52.27
2023-07-22T10:26:40.516Z,55.08
2023-07-22T10:29:11.379Z,57.11
2023-07-22T10:31:37.765Z,57.36
2023-07-22T10:34:04.430Z,59.46
2023-07-22T10:36:32.033Z,60.38
2023-07-22T10:39:03.307Z,62.32
2023-07-22T10:41:30.850Z,66.84
2023-07-22T10:43:59.082Z,70.60
2023-07-22T10:46:36.423Z,80.72
2023-07-22T10:49:17.491Z,84.97
2023-07-22T10:51:52.293Z,86.73
2023-07-22T10:54:37.541Z,85.67
2023-07-22T10:57:05.671Z,81.37
2023-07-22T10:59:35.444Z,78.37
2023-07-22T11:02:01.856Z,79.33
2023-07-22T11:07:06.816Z,78.26
2023-07-22T11:09:37.700Z,76.37
2023-07-22T11:12:14.350Z,76.93
2023-07-22T11:14:47.093Z,73.42
2023-07-22T11:17:13.558Z,73.95
2023-07-22T11:19:40.993Z,69.07
2023-07-22T11:22:07.680Z,69.07
2023-07-22T11:24:36.773Z,69.38
2023-07-22T11:27:05.323Z,63.87
2023-07-22T11:29:32.456Z,63.50
2023-07-22T11:31:58.960Z,64.96
2023-07-22T11:34:25.915Z,64.62
2023-07-22T11:36:53.624Z,63.83
2023-07-22T11:39:21.525Z,66.32
2023-07-22T11:41:49.079Z,65.59
2023-07-22T11:44:17.684Z,66.13
2023-07-22T11:47:06.641Z,62.39
2023-07-22T11:49:34.409Z,62.64
2023-07-22T11:52:08.482Z,66.36
2023-07-22T11:54:39.032Z,66.32
2023-07-22T11:57:18.848Z,68.13
2023-07-22T11:59:50.616Z,66.68
2023-07-22T12:02:22.266Z,66.21
2023-07-22T12:04:58.014Z,65.24
2023-07-22T12:07:25.872Z,65.71
2023-07-22T12:09:53.262Z,64.12
2023-07-22T12:12:19.755Z,63.95
2023-07-22T12:14:46.184Z,64.96
2023-07-22T12:17:12.598Z,68.32
2023-07-22T12:19:38.974Z,62.67
2023-07-22T12:22:05.332Z,64.90
2023-07-22T12:24:31.734Z,64.99
2023-07-22T12:26:58.182Z,64.02
2023-07-22T12:29:24.785Z,64.07
2023-07-22T12:31:51.222Z,66.29
2023-07-22T12:34:17.624Z,64.32
2023-07-22T12:36:43.981Z,64.38
2023-07-22T12:39:10.390Z,63.24
2023-07-22T12:41:36.728Z,63.51
2023-07-22T12:44:03.397Z,62.14
2023-07-22T12:46:29.840Z,62.17
2023-07-22T12:48:56.210Z,63.67
2023-07-22T12:51:22.658Z,62.32
2023-07-22T12:53:49.131Z,64.63
2023-07-22T12:56:15.472Z,65.24
2023-07-22T12:58:41.813Z,67.13
2023-07-22T13:01:08.813Z,67.79
2023-07-22T13:03:35.308Z,67.60
2023-07-22T13:06:01.765Z,68.12
2023-07-22T13:08:28.101Z,67.39
2023-07-22T13:10:54.438Z,68.01
2023-07-22T13:13:20.891Z,68.19
2023-07-22T13:15:47.302Z,67.42
2023-07-22T13:18:14.757Z,67.81
2023-07-22T13:20:41.612Z,68.38
2023-07-22T13:23:08.421Z,67.81
2023-07-22T13:25:34.846Z,69.80
2023-07-22T13:28:01.249Z,72.78
2023-07-22T13:30:27.643Z,75.41
2023-07-22T13:32:54.172Z,77.36
2023-07-22T13:35:21.021Z,79.34
2023-07-22T13:37:47.387Z,81.28
2023-07-22T13:40:13.886Z,81.65
2023-07-22T13:42:40.381Z,82.31
2023-07-22T13:45:07.390Z,81.83
2023-07-22T13:47:33.909Z,79.75
2023-07-22T13:50:00.314Z,79.07
2023-07-22T13:52:26.692Z,79.42
2023-07-22T13:54:53.087Z,79.17
2023-07-22T13:57:19.456Z,78.54
2023-07-22T13:59:45.814Z,76.12
2023-07-22T14:02:12.299Z,76.36
2023-07-22T14:04:39.488Z,75.71
2023-07-22T14:07:06.207Z,75.22
2023-07-22T14:09:32.598Z,77.53
2023-07-22T14:11:58.943Z,77.42
2023-07-22T14:14:29.597Z,77.10
2023-07-22T14:16:57.147Z,76.51
2023-07-22T14:19:24.864Z,76.84
2023-07-22T14:21:51.395Z,76.62
2023-07-22T14:24:17.836Z,75.84
2023-07-22T14:26:44.232Z,76.13
2023-07-22T14:29:10.640Z,76.82
2023-07-22T14:31:37.053Z,78.08
2023-07-22T14:34:03.461Z,77.81
2023-07-22T14:36:29.873Z,77.67
2023-07-22T14:38:56.967Z,78.25
2023-07-22T14:41:23.511Z,76.96
2023-07-22T14:43:49.905Z,76.95
2023-07-22T14:46:16.272Z,76.84
2023-07-22T14:48:43.577Z,77.34
2023-07-22T14:51:10.110Z,77.47
2023-07-22T14:53:36.503Z,77.45
2023-07-22T14:56:02.959Z,76.79
2023-07-22T14:58:29.320Z,77.10
2023-07-22T15:00:55.722Z,76.80
2023-07-22T15:03:22.163Z,76.47
2023-07-22T15:05:48.611Z,75.84
2023-07-22T15:08:14.980Z,77.25
2023-07-22T15:10:41.618Z,76.40
2023-07-22T15:13:08.093Z,76.49
2023-07-22T15:15:34.464Z,78.66
2023-07-22T15:18:00.963Z,77.56
2023-07-22T15:20:27.456Z,77.22
2023-07-22T15:22:53.937Z,79.05
2023-07-22T15:25:20.411Z,77.39
2023-07-22T15:27:46.767Z,78.41
2023-07-22T15:30:13.192Z,78.78
2023-07-22T15:32:39.800Z,76.92
2023-07-22T15:35:06.904Z,77.68
2023-07-22T15:37:33.283Z,77.39
2023-07-22T15:39:59.659Z,76.92
2023-07-22T15:42:26.075Z,76.43
2023-07-22T15:44:52.486Z,75.99
2023-07-22T15:47:19.028Z,77.34
2023-07-22T15:49:45.440Z,77.02
2023-07-22T15:52:11.851Z,77.11
2023-07-22T15:54:38.262Z,77.37
2023-07-22T15:57:04.752Z,76.56
2023-07-22T15:59:31.188Z,78.53
2023-07-22T16:01:57.546Z,77.01
2023-07-22T16:04:23.941Z,77.03
2023-07-22T16:06:50.279Z,76.97
2023-07-22T16:09:16.720Z,77.54
2023-07-22T16:11:43.074Z,77.93
2023-07-22T16:14:10.703Z,78.75
2023-07-22T16:16:38.479Z,78.10
2023-07-22T16:19:05.228Z,78.06
2023-07-22T16:21:31.588Z,78.86
2023-07-22T16:23:57.940Z,78.64
2023-07-22T16:26:24.307Z,79.19
2023-07-22T16:28:51.011Z,78.01
2023-07-22T16:31:17.430Z,79.41
2023-07-22T16:33:43.810Z,77.93
2023-07-22T16:36:10.163Z,76.97
2023-07-22T16:38:36.548Z,77.43
2023-07-22T16:41:02.955Z,78.11
2023-07-22T16:43:29.385Z,78.24
2023-07-22T16:45:55.879Z,78.90
2023-07-22T16:48:22.314Z,79.96
2023-07-22T16:50:48.686Z,80.60
2023-07-22T16:53:15.096Z,80.96
2023-07-22T16:55:41.820Z,80.22
2023-07-22T16:58:08.663Z,81.21
2023-07-22T17:00:35.197Z,80.40
2023-07-22T17:03:01.629Z,80.23
2023-07-22T17:05:28.100Z,79.02
2023-07-22T17:07:54.485Z,79.94
2023-07-22T17:10:20.851Z,81.29
2023-07-22T17:12:47.215Z,81.51
2023-07-22T17:15:14.880Z,81.20
2023-07-22T17:17:43.705Z,80.51
2023-07-22T17:20:11.831Z,79.59
2023-07-22T17:22:38.262Z,80.93
2023-07-22T17:25:04.963Z,80.75
2023-07-22T17:27:31.409Z,80.75
2023-07-22T17:29:57.801Z,81.65
2023-07-22T17:32:24.343Z,82.46
2023-07-22T17:34:50.768Z,81.22
2023-07-22T17:37:17.109Z,81.71
2023-07-22T17:39:43.465Z,82.02
2023-07-22T17:42:09.821Z,82.07
2023-07-22T17:44:36.190Z,80.15
2023-07-22T17:47:02.847Z,80.05
2023-07-22T17:49:29.268Z,79.08
2023-07-22T17:51:55.687Z,81.11
2023-07-22T17:54:22.054Z,80.86
2023-07-22T17:56:49.149Z,80.79
2023-07-22T17:59:15.510Z,80.09
2023-07-22T18:01:41.884Z,79.25
2023-07-22T18:04:08.232Z,80.20
2023-07-22T18:06:34.612Z,79.95
2023-07-22T18:09:00.996Z,79.40
2023-07-22T18:11:27.739Z,79.22
2023-07-22T18:13:55.405Z,79.29
2023-07-22T18:16:21.952Z,79.95
2023-07-22T18:18:48.329Z,80.44
2023-07-22T18:21:14.693Z,80.16
2023-07-22T18:23:41.071Z,81.86
2023-07-22T18:26:07.539Z,81.63
2023-07-22T18:28:33.976Z,81.91
2023-07-22T18:31:00.438Z,81.73
2023-07-22T18:33:26.832Z,82.05
2023-07-22T18:35:53.286Z,84.53
2023-07-22T18:38:20.219Z,84.28
2023-07-22T18:40:47.368Z,82.21
2023-07-22T18:43:13.955Z,82.76
2023-07-22T18:45:40.531Z,82.52
2023-07-22T18:48:06.948Z,82.90
2023-07-22T18:50:33.813Z,82.73
2023-07-22T18:53:03.172Z,83.43
2023-07-22T18:55:29.648Z,82.91
2023-07-22T18:57:56.000Z,83.16
2023-07-22T19:00:22.432Z,83.00
2023-07-22T19:02:51.796Z,82.38
2023-07-22T19:05:18.250Z,83.65
2023-07-22T19:07:44.620Z,84.34
2023-07-22T19:10:11.482Z,82.93
2023-07-22T19:12:37.848Z,83.11
2023-07-22T19:15:04.926Z,82.72
2023-07-22T19:17:31.318Z,81.95
2023-07-22T19:19:57.665Z,82.78
2023-07-22T19:22:24.024Z,81.51
2023-07-22T19:24:50.466Z,81.23
2023-07-22T19:27:16.900Z,82.93
2023-07-22T19:29:44.023Z,84.52
2023-07-22T19:32:10.512Z,84.34
2023-07-22T19:34:36.958Z,82.87
2023-07-22T19:37:03.513Z,82.79
2023-07-22T19:39:29.902Z,85.11
2023-07-22T19:41:56.287Z,84.29
2023-07-22T19:44:22.683Z,83.92
2023-07-22T19:46:49.113Z,84.70
2023-07-22T19:49:15.493Z,85.20
2023-07-22T19:51:41.852Z,85.95
2023-07-22T19:54:08.265Z,87.60
2023-07-22T19:56:34.717Z,87.70
2023-07-22T19:59:01.177Z,86.42
2023-07-22T20:01:27.782Z,85.99
2023-07-22T20:03:54.445Z,86.64
2023-07-22T20:06:20.857Z,85.17
2023-07-22T20:08:52.680Z,86.00
2023-07-22T20:11:19.922Z,86.41
2023-07-22T20:13:46.345Z,86.20
2023-07-22T20:16:12.717Z,85.22
2023-07-22T20:18:39.221Z,85.14
2023-07-22T20:21:05.642Z,84.94
2023-07-22T20:23:32.043Z,84.91
2023-07-22T20:25:59.367Z,83.94
2023-07-22T20:28:25.832Z,84.57
2023-07-22T20:30:52.253Z,84.74
2023-07-22T20:33:18.614Z,84.59
2023-07-22T20:35:45.047Z,84.35
2023-07-22T20:38:11.464Z,84.09
2023-07-22T20:40:37.858Z,85.82
2023-07-22T20:43:04.190Z,85.11
2023-07-22T20:45:30.585Z,85.71
2023-07-22T20:47:57.075Z,84.48
2023-07-22T20:50:23.455Z,84.10
2023-07-22T20:52:49.845Z,84.71
2023-07-22T20:55:16.423Z,84.56
2023-07-22T20:57:42.818Z,84.80
2023-07-22T21:00:09.690Z,85.21
2023-07-22T21:02:36.257Z,86.29
2023-07-22T21:05:02.872Z,86.02
2023-07-22T21:07:29.234Z,87.02
2023-07-22T21:09:55.628Z,87.34
2023-07-22T21:12:22.156Z,86.93
2023-07-22T21:14:48.534Z,85.30
2023-07-22T21:17:15.442Z,86.45
2023-07-22T21:19:41.897Z,86.51
2023-07-22T21:22:08.265Z,86.82
2023-07-22T21:24:34.828Z,86.21
2023-07-22T21:27:01.333Z,86.19
2023-07-22T21:29:27.786Z,87.11
2023-07-22T21:31:54.133Z,86.59
2023-07-22T21:34:20.522Z,86.30
2023-07-22T21:36:47.000Z,86.40
2023-07-22T21:39:13.680Z,87.43
2023-07-22T21:41:40.218Z,87.08
2023-07-22T21:44:06.563Z,87.33
2023-07-22T21:46:33.098Z,86.72
2023-07-22T21:48:59.425Z,86.21
2023-07-22T21:51:26.382Z,85.49
2023-07-22T21:53:52.982Z,87.05
2023-07-22T21:56:19.410Z,87.78
2023-07-22T21:58:45.755Z,86.55
2023-07-22T22:01:12.251Z,88.06
2023-07-22T22:03:38.621Z,87.91
2023-07-22T22:06:05.019Z,86.92
2023-07-22T22:08:31.425Z,87.10
2023-07-22T22:10:57.852Z,86.70
2023-07-22T22:13:26.141Z,86.60
2023-07-22T22:15:52.772Z,85.52
2023-07-22T22:18:19.181Z,86.96
2023-07-22T22:20:45.567Z,86.33
2023-07-22T22:23:14.161Z,85.67
2023-07-22T22:25:40.730Z,86.42
2023-07-22T22:28:07.213Z,87.63
2023-07-22T22:30:33.651Z,86.33
2023-07-22T22:33:00.143Z,85.82
2023-07-22T22:38:45.257Z,85.91
2023-07-22T22:48:30.798Z,87.20
2023-07-22T22:51:53.209Z,87.21
2023-07-22T22:59:30.061Z,88.05
2023-07-22T23:06:48.760Z,86.04
2023-07-22T23:12:51.384Z,86.28
2023-07-22T23:22:57.807Z,84.97
2023-07-22T23:26:08.421Z,83.99
